Huvudsida
METAR-TAF:

METAR-TAF

Flygplatser :

Mezjdunarodnyj aeroport "Issyk-Kul"

Tamchy, Kirgizistan

latitud: 42-35-17N, longitud: 076-42-47E, höjd: 1653 m

Aktuellt väderrapport

Denna rapport gjordes för 56 minuter sedan, klockan 14:00 UTC
Vind 4 kt från nordost
Temperatur 22°C
Fuktighet 43%
Tryck 1015 hPa
Sikt 10 km eller mer

METAR: UCFL 201400Z 04002MPS 9999 NSC 22/09 Q1015 R07/CLRD70

Tid: 20:56 (14:56 UTC)

Väderprognos

Denna rapport gjordes för 58 minuter sedan, klockan 13:58 UTC
Prognos gäller från 20 kl. 15 UTC till 20 kl. 24 UTC
Vind 6 kt från nord/nordväst i byarna ända upp till 16 kt
Sikt 10 km eller mer
Spridda moln på en höjd av 3000 ft, Cumulonimbus.
Brutna moln på en höjd av 10000 ft
Temporärt
från 20 kl. 18 UTC till 20 kl. 24 UTC
Vind 23 kt varierande vindriktning i byarna ända upp till 33 kt
Brutna moln på en höjd av 2000 ft, Cumulonimbus.
åska

TAF: UCFL 201358Z 2015/2024 33003G08MPS 9999 SCT030CB BKN100 TEMPO 2018/2024 VRB12G17MPS TS BKN020CB

Aktuella väderrapporter och prognoser från 4000 flygplatser (METAR- och TAF-rapporter).

De tillgängliga stationerna syns som gula och röda prickar på kartan.

För musen över prickarna för att se namnen på stationerna.

Klicka sedan för att få väderrapporter och prognoser.

För att ändra kartan: Klicka på de gröna knapparna med ett svart kors på för att zooma in; den gröna knappen med ett streck på för att zooma ut; eller på de gröna pilarna för angränsande kartor.


METAR-TAF: